createdAt,value
2019-02-10T00:01:18.453Z,5.10
2019-02-10T00:03:47.588Z,5.10
2019-02-10T00:06:24.326Z,5.10
2019-02-10T00:08:47.551Z,5.20
2019-02-10T00:11:16.689Z,5.20
2019-02-10T00:13:47.098Z,5.30
2019-02-10T00:16:20.526Z,5.40
2019-02-10T00:18:49.630Z,5.40
2019-02-10T00:21:19.112Z,5.40
2019-02-10T00:23:48.222Z,5.50
2019-02-10T00:26:17.397Z,5.50
2019-02-10T00:28:46.645Z,5.50
2019-02-10T00:31:15.750Z,5.60
2019-02-10T00:33:44.844Z,5.60
2019-02-10T00:36:13.999Z,5.70
2019-02-10T00:38:43.104Z,5.80
2019-02-10T00:41:12.208Z,5.90
2019-02-10T00:43:41.313Z,5.90
2019-02-10T00:46:10.437Z,5.90
2019-02-10T00:48:39.547Z,5.90
2019-02-10T00:51:08.629Z,6.00
2019-02-10T00:53:37.792Z,6.00
2019-02-10T00:56:06.934Z,6.00
2019-02-10T00:58:36.122Z,6.00
2019-02-10T01:01:05.208Z,6.00
2019-02-10T01:03:34.347Z,6.00
2019-02-10T01:06:03.604Z,6.10
2019-02-10T01:08:32.768Z,6.10
2019-02-10T01:11:01.943Z,6.10
2019-02-10T01:13:31.312Z,6.10
2019-02-10T01:16:00.408Z,6.10
2019-02-10T01:18:29.413Z,6.10
2019-02-10T01:20:58.553Z,6.20
2019-02-10T01:23:27.651Z,6.20
2019-02-10T01:25:56.758Z,6.30
2019-02-10T01:28:25.872Z,6.30
2019-02-10T01:30:54.996Z,6.40
2019-02-10T01:33:24.127Z,6.40
2019-02-10T01:35:53.349Z,6.50
2019-02-10T01:38:22.443Z,6.40
2019-02-10T01:40:51.572Z,6.40
2019-02-10T01:43:20.738Z,6.40
2019-02-10T01:45:49.847Z,6.40
2019-02-10T01:48:18.959Z,6.50
2019-02-10T01:50:48.048Z,6.50
2019-02-10T01:53:17.218Z,6.60
2019-02-10T01:55:46.320Z,6.70
2019-02-10T01:58:15.514Z,6.70
2019-02-10T02:00:44.626Z,6.70
2019-02-10T02:03:13.718Z,6.80
2019-02-10T02:05:42.986Z,6.80
2019-02-10T02:08:12.072Z,6.80
2019-02-10T02:10:41.159Z,6.80
2019-02-10T02:13:10.263Z,6.80
2019-02-10T02:15:39.364Z,6.90
2019-02-10T02:18:08.464Z,6.90
2019-02-10T02:20:37.734Z,7.00
2019-02-10T02:23:06.874Z,7.00
2019-02-10T02:25:36.036Z,7.00
2019-02-10T02:28:05.130Z,7.10
2019-02-10T02:30:34.255Z,7.10
2019-02-10T02:33:03.369Z,7.20
2019-02-10T02:35:32.447Z,7.20
2019-02-10T02:38:01.526Z,7.20
2019-02-10T02:40:30.595Z,7.20
2019-02-10T02:42:59.681Z,7.30
2019-02-10T02:45:28.834Z,7.30
2019-02-10T02:47:57.920Z,7.30
2019-02-10T02:50:27.006Z,7.30
2019-02-10T02:52:56.096Z,7.40
2019-02-10T02:55:25.117Z,7.40
2019-02-10T02:57:54.221Z,7.40
2019-02-10T03:00:23.301Z,7.40
2019-02-10T03:02:52.399Z,7.40
2019-02-10T03:05:21.549Z,7.40
2019-02-10T03:07:50.701Z,7.50
2019-02-10T03:10:19.803Z,7.50
2019-02-10T03:12:48.952Z,7.50
2019-02-10T03:15:18.110Z,7.60
2019-02-10T03:17:47.184Z,7.60
2019-02-10T03:20:16.264Z,7.60
2019-02-10T03:22:45.441Z,7.70
2019-02-10T03:25:14.515Z,7.80
2019-02-10T03:27:43.598Z,7.80
2019-02-10T03:30:12.734Z,7.80
2019-02-10T03:32:41.826Z,7.70
2019-02-10T03:35:10.914Z,7.70
2019-02-10T03:37:40.022Z,7.60
2019-02-10T03:40:09.164Z,7.60
2019-02-10T03:42:38.247Z,7.60
2019-02-10T03:45:07.660Z,7.60
2019-02-10T03:47:36.750Z,7.60
2019-02-10T03:50:05.840Z,7.50
2019-02-10T03:52:34.935Z,7.50
2019-02-10T03:55:04.028Z,7.40
2019-02-10T03:57:33.123Z,7.40
2019-02-10T04:00:02.209Z,7.30
2019-02-10T04:02:31.372Z,7.30
2019-02-10T04:05:00.492Z,7.30
2019-02-10T04:07:35.790Z,7.30
2019-02-10T04:10:00.444Z,7.20
2019-02-10T04:12:29.604Z,7.20
2019-02-10T04:14:58.700Z,7.20
2019-02-10T04:17:27.793Z,7.20
2019-02-10T04:19:56.875Z,7.20
2019-02-10T04:22:25.948Z,7.20
2019-02-10T04:24:55.034Z,7.20
2019-02-10T04:27:24.480Z,7.20
2019-02-10T04:29:53.563Z,7.20
2019-02-10T04:32:22.647Z,7.20
2019-02-10T04:34:51.627Z,7.10
2019-02-10T04:37:20.701Z,7.10
2019-02-10T04:39:49.789Z,7.10
2019-02-10T04:42:18.855Z,7.10
2019-02-10T04:44:48.937Z,7.10
2019-02-10T04:47:18.225Z,7.00
2019-02-10T04:49:47.359Z,7.10
2019-02-10T04:52:16.453Z,7.10
2019-02-10T04:54:45.609Z,7.10
2019-02-10T04:57:14.686Z,7.10
2019-02-10T04:59:43.771Z,7.10
2019-02-10T05:02:12.845Z,7.10
2019-02-10T05:04:41.919Z,7.10
2019-02-10T05:07:11.082Z,7.20
2019-02-10T05:09:40.230Z,7.20
2019-02-10T05:12:09.298Z,7.20
2019-02-10T05:14:38.331Z,7.30
2019-02-10T05:17:07.404Z,7.30
2019-02-10T05:19:36.475Z,7.30
2019-02-10T05:22:05.649Z,7.40
2019-02-10T05:24:34.745Z,7.40
2019-02-10T05:27:03.837Z,7.40
2019-02-10T05:29:33.024Z,7.40
2019-02-10T05:32:02.418Z,7.40
2019-02-10T05:34:31.518Z,7.40
2019-02-10T05:37:00.611Z,7.40
2019-02-10T05:39:29.699Z,7.40
2019-02-10T05:41:58.860Z,7.50
2019-02-10T05:44:28.067Z,7.50
2019-02-10T05:46:57.171Z,7.50
2019-02-10T05:49:26.250Z,7.40
2019-02-10T05:51:55.323Z,7.40
2019-02-10T05:54:24.407Z,7.50
2019-02-10T05:56:53.555Z,7.40
2019-02-10T05:59:22.647Z,7.50
2019-02-10T06:02:04.336Z,7.50
2019-02-10T06:04:35.917Z,7.50
2019-02-10T06:07:08.530Z,7.50
2019-02-10T06:09:37.634Z,7.50
2019-02-10T06:12:06.783Z,7.40
2019-02-10T06:14:35.935Z,7.40
2019-02-10T06:17:05.050Z,7.40
2019-02-10T06:19:34.256Z,7.50
2019-02-10T06:22:03.339Z,7.50
2019-02-10T06:24:32.467Z,7.50
2019-02-10T06:27:01.634Z,7.50
2019-02-10T06:29:30.725Z,7.60
2019-02-10T06:31:59.802Z,7.70
2019-02-10T06:34:29.006Z,7.70
2019-02-10T06:36:58.094Z,7.80
2019-02-10T06:39:27.258Z,7.90
2019-02-10T06:41:56.338Z,7.90
2019-02-10T06:44:25.482Z,8.00
2019-02-10T06:46:54.602Z,8.10
2019-02-10T06:49:23.752Z,8.10
2019-02-10T06:51:52.865Z,8.30
2019-02-10T06:54:21.968Z,8.40
2019-02-10T06:56:51.043Z,8.40
2019-02-10T06:59:30.248Z,8.40
2019-02-10T07:02:04.794Z,8.40
2019-02-10T07:04:33.964Z,8.40
2019-02-10T07:07:03.104Z,8.40
2019-02-10T07:09:32.184Z,8.40
2019-02-10T07:12:38.558Z,8.30
2019-02-10T07:15:10.712Z,8.40
2019-02-10T07:18:22.985Z,8.40
2019-02-10T07:20:52.172Z,8.40
2019-02-10T07:24:07.473Z,8.40
2019-02-10T07:27:12.726Z,8.30
2019-02-10T07:30:53.280Z,8.30
2019-02-10T07:33:47.512Z,8.20
2019-02-10T07:37:12.804Z,8.20
2019-02-10T07:40:26.088Z,8.10
2019-02-10T07:43:17.706Z,8.10
2019-02-10T07:46:21.140Z,8.10
2019-02-10T07:49:19.039Z,8.10
2019-02-10T07:51:59.774Z,8.10
2019-02-10T07:55:07.809Z,8.00
2019-02-10T07:58:09.980Z,8.00
2019-02-10T08:00:54.436Z,8.10
2019-02-10T08:04:08.851Z,8.10
2019-02-10T08:07:17.578Z,8.20
2019-02-10T08:10:16.656Z,8.20
2019-02-10T08:13:22.498Z,8.20
2019-02-10T08:16:09.848Z,8.30
2019-02-10T08:19:21.114Z,8.30
2019-02-10T08:22:10.428Z,8.40
2019-02-10T08:25:23.644Z,8.50
2019-02-10T08:28:49.090Z,8.50
2019-02-10T08:31:43.185Z,8.60
2019-02-10T08:34:20.326Z,8.70
2019-02-10T08:37:18.058Z,8.90
2019-02-10T08:40:46.240Z,8.90
2019-02-10T08:43:59.147Z,9.10
2019-02-10T08:46:38.674Z,9.10
2019-02-10T08:50:04.188Z,9.10
2019-02-10T08:52:51.557Z,9.10
2019-02-10T08:55:15.424Z,9.10
2019-02-10T08:57:44.624Z,9.00
2019-02-10T09:00:13.842Z,9.00
2019-02-10T09:02:43.042Z,9.00
2019-02-10T09:05:12.153Z,9.20
2019-02-10T09:07:41.279Z,9.20
2019-02-10T09:10:11.601Z,9.20
2019-02-10T09:12:40.914Z,9.30
2019-02-10T09:15:10.982Z,9.30
2019-02-10T09:17:40.144Z,9.30
2019-02-10T09:20:09.627Z,9.40
2019-02-10T09:22:38.906Z,9.40
2019-02-10T09:25:08.859Z,9.50
2019-02-10T09:27:38.101Z,9.50
2019-02-10T09:30:08.269Z,9.50
2019-02-10T09:32:37.372Z,9.40
2019-02-10T09:35:06.734Z,9.40
2019-02-10T09:37:35.942Z,9.40
2019-02-10T09:40:05.725Z,9.30
2019-02-10T09:42:34.913Z,9.40
2019-02-10T09:45:04.434Z,9.40
2019-02-10T09:47:33.673Z,9.50
2019-02-10T09:50:02.876Z,9.40
2019-02-10T09:52:32.074Z,9.40
2019-02-10T09:55:01.181Z,9.40
2019-02-10T09:57:33.379Z,9.30
2019-02-10T10:00:02.664Z,9.30
2019-02-10T10:02:31.798Z,9.30
2019-02-10T10:05:00.915Z,9.30
2019-02-10T10:07:30.072Z,9.30
2019-02-10T10:09:59.301Z,9.40
2019-02-10T10:12:28.476Z,9.40
2019-02-10T10:14:57.581Z,9.50
2019-02-10T10:17:26.750Z,9.50
2019-02-10T10:19:55.977Z,9.50
2019-02-10T10:22:25.470Z,9.40
2019-02-10T10:24:54.720Z,9.40
2019-02-10T10:27:23.916Z,9.40
2019-02-10T10:29:53.009Z,9.40
2019-02-10T10:32:22.204Z,9.50
2019-02-10T10:34:51.333Z,9.60
2019-02-10T10:37:20.417Z,9.60
2019-02-10T10:39:49.501Z,9.70
2019-02-10T10:42:18.781Z,9.70
2019-02-10T10:44:47.865Z,9.70
2019-02-10T10:47:16.981Z,9.70
2019-02-10T10:49:46.093Z,9.70
2019-02-10T10:52:15.267Z,9.70
2019-02-10T10:54:44.393Z,9.70
2019-02-10T10:57:13.453Z,9.70
2019-02-10T10:59:42.546Z,9.60
2019-02-10T11:02:11.630Z,9.50
2019-02-10T11:04:40.727Z,9.40
2019-02-10T11:07:09.904Z,9.30
2019-02-10T11:09:39.035Z,9.30
2019-02-10T11:12:08.125Z,9.20
2019-02-10T11:14:37.255Z,9.10
2019-02-10T11:17:10.538Z,9.00
2019-02-10T11:19:37.195Z,9.00
2019-02-10T11:22:06.306Z,9.00
2019-02-10T11:24:35.414Z,9.00
2019-02-10T11:27:04.506Z,8.80
2019-02-10T11:29:33.611Z,8.80
2019-02-10T11:32:02.700Z,8.80
2019-02-10T11:34:31.763Z,8.80
2019-02-10T11:37:00.860Z,8.80
2019-02-10T11:39:29.941Z,8.90
2019-02-10T11:41:59.045Z,8.90
2019-02-10T11:44:28.133Z,8.80
2019-02-10T11:46:57.245Z,8.80
2019-02-10T11:49:26.335Z,8.80
2019-02-10T11:51:55.436Z,8.80
2019-02-10T11:54:24.553Z,8.80
2019-02-10T11:56:53.765Z,8.80
2019-02-10T11:59:22.860Z,8.80
2019-02-10T12:01:51.896Z,8.80
2019-02-10T12:04:21.068Z,8.80
2019-02-10T12:06:50.149Z,8.80
2019-02-10T12:09:19.268Z,8.80
2019-02-10T12:11:48.381Z,8.80
2019-02-10T12:14:17.481Z,8.80
2019-02-10T12:16:46.601Z,8.80
2019-02-10T12:19:15.697Z,8.80
2019-02-10T12:21:44.876Z,8.80
2019-02-10T12:24:13.961Z,8.90
2019-02-10T12:26:43.061Z,8.80
2019-02-10T12:29:12.175Z,8.80
2019-02-10T12:31:41.313Z,8.80
2019-02-10T12:34:10.435Z,8.70
2019-02-10T12:36:39.557Z,8.60
2019-02-10T12:39:09.027Z,8.60
2019-02-10T12:41:38.161Z,8.60
2019-02-10T12:44:07.289Z,8.60
2019-02-10T12:46:36.405Z,8.50
2019-02-10T12:49:05.495Z,8.50
2019-02-10T12:51:34.601Z,8.40
2019-02-10T12:54:03.695Z,8.40
2019-02-10T12:56:32.772Z,8.40
2019-02-10T12:59:01.965Z,8.30
2019-02-10T13:01:31.062Z,8.20
2019-02-10T13:04:00.183Z,8.20
2019-02-10T13:06:29.310Z,8.10
2019-02-10T13:08:58.419Z,8.10
2019-02-10T13:11:27.528Z,8.10
2019-02-10T13:13:56.629Z,8.10
2019-02-10T13:16:25.839Z,8.00
2019-02-10T13:18:54.947Z,7.90
2019-02-10T13:21:24.045Z,7.80
2019-02-10T13:23:53.159Z,7.80
2019-02-10T13:26:22.261Z,7.70
2019-02-10T13:28:51.499Z,7.70
2019-02-10T13:31:20.616Z,7.80
2019-02-10T13:33:49.858Z,7.70
2019-02-10T13:36:18.987Z,7.70
2019-02-10T13:38:48.103Z,7.70
2019-02-10T13:41:17.154Z,7.70
2019-02-10T13:43:46.288Z,7.70
2019-02-10T13:46:15.378Z,7.60
2019-02-10T13:48:44.423Z,7.60
2019-02-10T13:51:16.661Z,7.60
2019-02-10T13:53:45.770Z,7.60
2019-02-10T13:56:14.852Z,7.50
2019-02-10T13:58:44.016Z,7.50
2019-02-10T14:01:13.106Z,7.40
2019-02-10T14:03:42.175Z,7.40
2019-02-10T14:06:11.418Z,7.30
2019-02-10T14:08:40.525Z,7.30
2019-02-10T14:11:09.669Z,7.30
2019-02-10T14:13:38.824Z,7.30
2019-02-10T14:16:07.957Z,7.20
2019-02-10T14:18:37.108Z,7.20
2019-02-10T14:21:06.189Z,7.10
2019-02-10T14:23:35.300Z,7.10
2019-02-10T14:26:04.398Z,7.10
2019-02-10T14:28:33.546Z,7.10
2019-02-10T14:31:02.676Z,7.20
2019-02-10T14:33:38.662Z,7.20
2019-02-10T14:36:02.658Z,7.20
2019-02-10T14:38:36.313Z,7.20
2019-02-10T14:41:02.568Z,7.20
2019-02-10T14:43:31.660Z,7.20
2019-02-10T14:46:00.732Z,7.20
2019-02-10T14:48:29.824Z,7.10
2019-02-10T14:50:58.902Z,7.10
2019-02-10T14:53:27.999Z,7.10
2019-02-10T14:55:57.095Z,7.00
2019-02-10T14:58:26.170Z,7.10
2019-02-10T15:00:55.290Z,7.10
2019-02-10T15:03:24.372Z,7.10
2019-02-10T15:05:53.450Z,7.00
2019-02-10T15:08:22.532Z,7.00
2019-02-10T15:10:51.632Z,7.00
2019-02-10T15:13:20.728Z,7.00
2019-02-10T15:15:49.901Z,7.00
2019-02-10T15:18:19.050Z,7.00
2019-02-10T15:20:48.170Z,7.00
2019-02-10T15:23:17.298Z,7.00
2019-02-10T15:25:46.510Z,7.00
2019-02-10T15:28:15.646Z,7.00
2019-02-10T15:30:44.826Z,6.90
2019-02-10T15:33:13.938Z,6.90
2019-02-10T15:35:43.051Z,7.00
2019-02-10T15:38:12.210Z,7.00
2019-02-10T15:40:41.516Z,7.00
2019-02-10T15:43:10.626Z,7.00
2019-02-10T15:45:39.744Z,7.00
2019-02-10T15:48:09.579Z,7.00
2019-02-10T15:50:38.898Z,7.00
2019-02-10T15:53:08.019Z,7.00
2019-02-10T15:55:37.206Z,6.90
2019-02-10T15:58:06.337Z,7.00
2019-02-10T16:00:35.440Z,7.00
2019-02-10T16:03:04.636Z,7.00
2019-02-10T16:05:34.080Z,6.90
2019-02-10T16:08:03.194Z,6.90
2019-02-10T16:10:32.483Z,6.90
2019-02-10T16:13:01.644Z,6.80
2019-02-10T16:15:30.951Z,6.70
2019-02-10T16:18:00.182Z,6.70
2019-02-10T16:20:29.377Z,6.60
2019-02-10T16:22:58.540Z,6.50
2019-02-10T16:25:27.687Z,6.50
2019-02-10T16:27:56.946Z,6.50
2019-02-10T16:30:26.119Z,6.40
2019-02-10T16:32:55.356Z,6.40
2019-02-10T16:35:24.591Z,6.30
2019-02-10T16:37:53.936Z,6.30
2019-02-10T16:40:23.149Z,6.20
2019-02-10T16:42:52.332Z,6.20
2019-02-10T16:45:21.560Z,6.20
2019-02-10T16:47:50.766Z,6.20
2019-02-10T16:50:20.160Z,6.10
2019-02-10T16:52:49.446Z,6.20
2019-02-10T16:55:18.706Z,6.10
2019-02-10T16:57:47.848Z,6.20
2019-02-10T17:00:17.233Z,6.20
2019-02-10T17:02:46.476Z,6.20
2019-02-10T17:05:15.762Z,6.20
2019-02-10T17:07:44.922Z,6.20
2019-02-10T17:10:14.319Z,6.10
2019-02-10T17:12:48.060Z,6.10
2019-02-10T17:15:17.417Z,6.10
2019-02-10T17:17:52.480Z,6.10
2019-02-10T17:20:21.595Z,6.10
2019-02-10T17:22:50.695Z,6.10
2019-02-10T17:25:19.830Z,6.10
2019-02-10T17:27:48.917Z,6.10
2019-02-10T17:30:18.019Z,6.10
2019-02-10T17:32:47.100Z,6.10
2019-02-10T17:35:16.192Z,6.10
2019-02-10T17:37:45.315Z,6.10
2019-02-10T17:40:21.153Z,6.10
2019-02-10T17:42:50.260Z,6.10
2019-02-10T17:45:19.481Z,6.10
2019-02-10T17:47:48.569Z,6.10
2019-02-10T17:50:17.699Z,6.10
2019-02-10T17:52:46.737Z,6.20
2019-02-10T17:55:15.855Z,6.20
2019-02-10T17:57:45.008Z,6.10
2019-02-10T18:00:14.507Z,6.10
2019-02-10T18:02:43.716Z,6.00
2019-02-10T18:05:12.929Z,6.00
2019-02-10T18:07:42.035Z,5.90
2019-02-10T18:10:11.711Z,5.90
2019-02-10T18:12:40.810Z,5.90
2019-02-10T18:15:34.966Z,5.90
2019-02-10T18:18:29.382Z,5.90
2019-02-10T18:21:15.831Z,5.90
2019-02-10T18:24:08.567Z,5.90
2019-02-10T18:26:59.468Z,5.90
2019-02-10T18:29:54.413Z,5.90
2019-02-10T18:32:42.711Z,5.90
2019-02-10T18:35:21.713Z,5.80
2019-02-10T18:38:19.180Z,5.70
2019-02-10T18:41:10.435Z,5.60
2019-02-10T18:44:10.559Z,5.50
2019-02-10T18:46:49.157Z,5.30
2019-02-10T18:49:35.002Z,5.20
2019-02-10T18:52:16.515Z,5.10
2019-02-10T18:55:07.711Z,5.00
2019-02-10T18:57:54.862Z,5.00
2019-02-10T19:00:52.100Z,5.00
2019-02-10T19:03:55.367Z,4.90
2019-02-10T19:06:49.451Z,4.90
2019-02-10T19:09:32.941Z,4.90
2019-02-10T19:12:23.939Z,4.90
2019-02-10T19:15:21.313Z,5.00
2019-02-10T19:18:02.940Z,5.00
2019-02-10T19:20:55.846Z,5.00
2019-02-10T19:23:43.041Z,5.00
2019-02-10T19:26:31.190Z,5.00
2019-02-10T19:29:18.109Z,5.00
2019-02-10T19:32:02.897Z,5.00
2019-02-10T19:34:51.060Z,5.00
2019-02-10T19:37:36.427Z,4.90
2019-02-10T19:40:34.591Z,5.00
2019-02-10T19:43:21.295Z,4.90
2019-02-10T19:46:12.665Z,4.90
2019-02-10T19:48:59.533Z,4.80
2019-02-10T19:51:41.111Z,4.80
2019-02-10T19:54:24.158Z,4.70
2019-02-10T19:57:05.213Z,4.70
2019-02-10T19:59:57.642Z,4.70
2019-02-10T20:02:45.183Z,4.70
2019-02-10T20:05:42.183Z,4.70
2019-02-10T20:08:32.367Z,4.70
2019-02-10T20:11:20.539Z,4.80
2019-02-10T20:13:54.826Z,4.80
2019-02-10T20:16:42.963Z,4.80
2019-02-10T20:19:21.357Z,4.80
2019-02-10T20:22:21.787Z,4.80
2019-02-10T20:25:14.421Z,4.70
2019-02-10T20:27:56.515Z,4.80
2019-02-10T20:30:39.103Z,4.80
2019-02-10T20:33:22.645Z,4.80
2019-02-10T20:36:05.159Z,4.80
2019-02-10T20:39:02.367Z,4.70
2019-02-10T20:41:38.352Z,4.70
2019-02-10T20:44:29.524Z,4.70
2019-02-10T20:47:15.821Z,4.70
2019-02-10T20:49:55.171Z,4.70
2019-02-10T20:52:55.432Z,4.80
2019-02-10T20:55:30.643Z,4.70
2019-02-10T20:58:17.668Z,4.70
2019-02-10T21:01:21.190Z,4.70
2019-02-10T21:04:21.329Z,4.70
2019-02-10T21:07:09.478Z,4.70
2019-02-10T21:09:56.330Z,4.70
2019-02-10T21:12:43.416Z,4.70
2019-02-10T21:15:27.168Z,4.80
2019-02-10T21:18:06.707Z,4.80
2019-02-10T21:20:47.029Z,4.90
2019-02-10T21:23:41.257Z,4.90
2019-02-10T21:26:27.756Z,4.90
2019-02-10T21:29:14.739Z,5.00
2019-02-10T21:32:21.324Z,5.00
2019-02-10T21:34:55.363Z,5.00
2019-02-10T21:37:34.070Z,5.10
2019-02-10T21:40:11.077Z,5.00
2019-02-10T21:42:58.120Z,5.00
2019-02-10T21:45:49.280Z,5.10
2019-02-10T21:48:22.427Z,5.00
2019-02-10T21:50:51.552Z,5.00
2019-02-10T21:53:20.720Z,5.00
2019-02-10T21:55:49.811Z,5.00
2019-02-10T21:58:18.903Z,5.10
2019-02-10T22:00:47.986Z,5.00
2019-02-10T22:03:17.070Z,4.90
2019-02-10T22:05:46.148Z,4.80
2019-02-10T22:08:15.254Z,4.70
2019-02-10T22:10:44.362Z,4.60
2019-02-10T22:13:13.452Z,4.50
2019-02-10T22:15:42.552Z,4.40
2019-02-10T22:18:11.615Z,4.40
2019-02-10T22:20:40.705Z,4.50
2019-02-10T22:23:09.804Z,4.50
2019-02-10T22:25:40.408Z,4.50
2019-02-10T22:28:09.631Z,4.60
2019-02-10T22:30:38.724Z,4.60
2019-02-10T22:33:07.828Z,4.60
2019-02-10T22:35:36.949Z,4.60
2019-02-10T22:38:06.090Z,4.50
2019-02-10T22:40:35.202Z,4.30
2019-02-10T22:43:04.282Z,4.10
2019-02-10T22:45:33.372Z,4.00
2019-02-10T22:48:02.470Z,3.80
2019-02-10T22:50:31.646Z,3.80
2019-02-10T22:53:01.342Z,3.80
2019-02-10T22:55:30.430Z,3.70
2019-02-10T22:57:59.534Z,3.60
2019-02-10T23:00:47.291Z,3.50
2019-02-10T23:03:16.839Z,3.40
2019-02-10T23:05:46.096Z,3.40
2019-02-10T23:08:15.319Z,3.40
2019-02-10T23:10:44.420Z,3.40
2019-02-10T23:13:13.484Z,3.40
2019-02-10T23:15:42.606Z,3.40
2019-02-10T23:18:11.692Z,3.40
2019-02-10T23:20:40.799Z,3.50
2019-02-10T23:23:09.917Z,3.50
2019-02-10T23:25:39.049Z,3.40
2019-02-10T23:28:08.137Z,3.40
2019-02-10T23:30:37.202Z,3.40
2019-02-10T23:33:06.378Z,3.40
2019-02-10T23:35:35.561Z,3.30
2019-02-10T23:38:04.687Z,3.30
2019-02-10T23:40:33.818Z,3.30
2019-02-10T23:43:03.074Z,3.30
2019-02-10T23:45:32.148Z,3.20
2019-02-10T23:48:01.226Z,3.30
2019-02-10T23:50:30.343Z,3.30
2019-02-10T23:52:59.436Z,3.20
2019-02-10T23:55:28.496Z,3.20
2019-02-10T23:57:57.602Z,3.20
